createdAt,value
2023-02-22T00:02:10.980Z,8.80
2023-02-22T00:04:39.655Z,8.80
2023-02-22T00:07:07.316Z,8.70
2023-02-22T00:09:34.446Z,8.60
2023-02-22T00:12:01.456Z,8.60
2023-02-22T00:14:29.676Z,8.60
2023-02-22T00:16:59.480Z,8.50
2023-02-22T00:19:28.098Z,8.50
2023-02-22T00:21:55.279Z,8.50
2023-02-22T00:24:25.035Z,8.40
2023-02-22T00:26:52.651Z,8.40
2023-02-22T00:29:19.577Z,8.40
2023-02-22T00:31:47.805Z,8.30
2023-02-22T00:34:15.040Z,8.40
2023-02-22T00:36:45.630Z,8.40
2023-02-22T00:39:12.795Z,8.40
2023-02-22T00:41:39.694Z,8.30
2023-02-22T00:44:06.689Z,8.20
2023-02-22T00:46:33.749Z,8.10
2023-02-22T00:49:01.973Z,8.10
2023-02-22T00:51:28.932Z,8.00
2023-02-22T00:53:55.827Z,7.90
2023-02-22T00:56:23.202Z,7.80
2023-02-22T00:58:50.098Z,7.80
2023-02-22T01:01:17.274Z,7.70
2023-02-22T01:03:44.915Z,7.60
2023-02-22T01:06:13.292Z,7.60
2023-02-22T01:08:44.612Z,7.60
2023-02-22T01:11:11.659Z,7.60
2023-02-22T01:13:38.719Z,7.60
2023-02-22T01:16:08.287Z,7.60
2023-02-22T01:18:35.669Z,7.60
2023-02-22T01:21:02.940Z,7.60
2023-02-22T01:23:31.139Z,7.60
2023-02-22T01:25:58.648Z,7.60
2023-02-22T01:28:25.468Z,7.60
2023-02-22T01:30:52.690Z,7.60
2023-02-22T01:33:19.711Z,7.70
2023-02-22T01:35:46.897Z,7.60
2023-02-22T01:38:14.425Z,7.60
2023-02-22T01:40:46.407Z,7.60
2023-02-22T01:43:20.877Z,7.60
2023-02-22T01:45:55.849Z,7.70
2023-02-22T01:48:27.922Z,7.80
2023-02-22T01:50:58.413Z,7.90
2023-02-22T01:53:30.278Z,7.90
2023-02-22T01:55:59.166Z,7.90
2023-02-22T01:58:30.548Z,7.90
2023-02-22T02:00:57.716Z,7.90
2023-02-22T02:03:28.429Z,7.90
2023-02-22T02:05:58.285Z,7.90
2023-02-22T02:08:31.941Z,7.90
2023-02-22T02:11:01.676Z,7.90
2023-02-22T02:13:28.712Z,7.80
2023-02-22T02:15:56.652Z,7.80
2023-02-22T02:18:26.258Z,7.80
2023-02-22T02:21:27.715Z,7.80
2023-02-22T02:24:28.466Z,7.70
2023-02-22T02:27:10.302Z,7.60
2023-02-22T02:30:04.135Z,7.50
2023-02-22T02:32:51.885Z,7.40
2023-02-22T02:35:26.375Z,7.40
2023-02-22T02:37:57.984Z,7.30
2023-02-22T02:40:32.395Z,7.20
2023-02-22T02:43:07.744Z,7.20
2023-02-22T02:45:42.698Z,7.20
2023-02-22T02:48:15.225Z,7.10
2023-02-22T02:50:45.036Z,7.10
2023-02-22T02:53:17.087Z,7.10
2023-02-22T02:55:44.354Z,7.00
2023-02-22T02:58:18.145Z,7.00
2023-02-22T03:00:45.790Z,6.90
2023-02-22T03:03:33.972Z,6.80
2023-02-22T03:06:33.314Z,6.70
2023-02-22T03:09:08.911Z,6.60
2023-02-22T03:11:48.493Z,6.60
2023-02-22T03:14:21.823Z,6.60
2023-02-22T03:16:56.066Z,6.70
2023-02-22T03:19:32.133Z,6.60
2023-02-22T03:22:05.965Z,6.60
2023-02-22T03:24:42.493Z,6.60
2023-02-22T03:27:16.418Z,6.60
2023-02-22T03:29:51.497Z,6.60
2023-02-22T03:32:23.326Z,6.60
2023-02-22T03:34:57.183Z,6.60
2023-02-22T03:37:32.096Z,6.50
2023-02-22T03:40:06.190Z,6.50
2023-02-22T03:42:37.599Z,6.50
2023-02-22T03:45:10.039Z,6.50
2023-02-22T03:47:42.042Z,6.50
2023-02-22T03:50:15.316Z,6.50
2023-02-22T03:52:43.885Z,6.40
2023-02-22T03:55:17.701Z,6.40
2023-02-22T03:57:49.145Z,6.30
2023-02-22T04:00:22.720Z,6.20
2023-02-22T04:02:50.630Z,6.20
2023-02-22T04:05:22.195Z,6.20
2023-02-22T04:07:49.488Z,6.20
2023-02-22T04:10:16.773Z,6.20
2023-02-22T04:12:44.317Z,6.20
2023-02-22T04:15:15.546Z,6.20
2023-02-22T04:17:43.453Z,6.20
2023-02-22T04:20:14.092Z,6.20
2023-02-22T04:22:50.127Z,6.20
2023-02-22T04:25:17.506Z,6.20
2023-02-22T04:27:47.045Z,6.10
2023-02-22T04:30:18.193Z,6.00
2023-02-22T04:32:45.328Z,6.00
2023-02-22T04:35:14.179Z,5.90
2023-02-22T04:37:42.064Z,5.80
2023-02-22T04:40:11.546Z,5.70
2023-02-22T04:42:39.011Z,5.60
2023-02-22T04:45:08.181Z,5.50
2023-02-22T04:47:35.982Z,5.40
2023-02-22T04:50:03.342Z,5.30
2023-02-22T04:52:30.401Z,5.30
2023-02-22T04:54:57.333Z,5.30
2023-02-22T04:57:25.690Z,5.30
2023-02-22T04:59:52.950Z,5.40
2023-02-22T05:02:20.234Z,5.40
2023-02-22T05:04:47.109Z,5.40
2023-02-22T05:07:14.091Z,5.30
2023-02-22T05:09:41.145Z,5.30
2023-02-22T05:12:08.184Z,5.20
2023-02-22T05:14:36.556Z,5.20
2023-02-22T05:17:03.926Z,5.20
2023-02-22T05:19:30.957Z,5.20
2023-02-22T05:21:57.945Z,5.20
2023-02-22T05:24:24.833Z,5.20
2023-02-22T05:26:53.234Z,5.30
2023-02-22T05:29:21.040Z,5.20
2023-02-22T05:31:49.367Z,5.20
2023-02-22T05:34:16.660Z,5.20
2023-02-22T05:36:43.678Z,5.20
2023-02-22T05:39:10.539Z,5.20
2023-02-22T05:41:37.539Z,5.20
2023-02-22T05:44:05.020Z,5.30
2023-02-22T05:46:32.200Z,5.30
2023-02-22T05:49:00.410Z,5.30
2023-02-22T05:51:27.408Z,5.30
2023-02-22T05:53:54.264Z,5.30
2023-02-22T05:56:22.669Z,5.30
2023-02-22T05:58:49.684Z,5.30
2023-02-22T06:01:17.700Z,5.30
2023-02-22T06:03:47.725Z,5.30
2023-02-22T06:06:16.870Z,5.30
2023-02-22T06:08:44.167Z,5.30
2023-02-22T06:11:11.691Z,5.30
2023-02-22T06:13:39.258Z,5.30
2023-02-22T06:16:07.065Z,5.30
2023-02-22T06:18:34.066Z,5.30
2023-02-22T06:21:01.365Z,5.30
2023-02-22T06:23:29.612Z,5.30
2023-02-22T06:25:56.471Z,5.30
2023-02-22T06:28:23.783Z,5.40
2023-02-22T06:30:50.829Z,5.40
2023-02-22T06:33:17.893Z,5.40
2023-02-22T06:35:45.348Z,5.50
2023-02-22T06:38:12.645Z,5.50
2023-02-22T06:40:40.899Z,5.60
2023-02-22T06:43:07.762Z,5.60
2023-02-22T06:45:34.713Z,5.70
2023-02-22T06:48:02.120Z,5.70
2023-02-22T06:50:30.370Z,5.80
2023-02-22T06:52:58.372Z,5.80
2023-02-22T06:55:28.460Z,5.90
2023-02-22T06:57:56.707Z,5.90
2023-02-22T07:00:25.297Z,6.00
2023-02-22T07:02:53.077Z,6.10
2023-02-22T07:05:21.988Z,6.20
2023-02-22T07:07:49.989Z,6.30
2023-02-22T07:10:20.466Z,6.30
2023-02-22T07:12:48.586Z,6.40
2023-02-22T07:15:18.211Z,6.40
2023-02-22T07:17:45.282Z,6.40
2023-02-22T07:20:12.667Z,6.50
2023-02-22T07:22:39.945Z,6.60
2023-02-22T07:25:10.020Z,6.60
2023-02-22T07:27:37.905Z,6.70
2023-02-22T07:30:06.197Z,6.80
2023-02-22T07:32:34.681Z,6.90
2023-02-22T07:35:02.955Z,7.00
2023-02-22T07:37:30.267Z,7.10
2023-02-22T07:39:57.275Z,7.20
2023-02-22T07:42:24.161Z,7.30
2023-02-22T07:44:51.048Z,7.50
2023-02-22T07:47:17.867Z,7.60
2023-02-22T07:49:46.098Z,7.80
2023-02-22T07:52:13.005Z,8.00
2023-02-22T07:54:39.910Z,8.40
2023-02-22T07:57:06.738Z,8.90
2023-02-22T07:59:33.974Z,9.50
2023-02-22T08:02:00.834Z,10.00
2023-02-22T08:04:27.697Z,10.30
2023-02-22T08:06:56.509Z,10.50
2023-02-22T08:09:23.648Z,10.90
2023-02-22T08:11:50.567Z,11.30
2023-02-22T08:14:17.504Z,11.80
2023-02-22T08:16:44.427Z,12.40
2023-02-22T08:19:11.284Z,12.90
2023-02-22T08:21:38.177Z,13.50
2023-02-22T08:24:06.970Z,14.00
2023-02-22T08:26:33.857Z,14.20
2023-02-22T08:29:00.723Z,14.40
2023-02-22T08:31:27.742Z,14.70
2023-02-22T08:33:54.628Z,15.20
2023-02-22T08:36:21.665Z,15.70
2023-02-22T08:38:48.602Z,16.30
2023-02-22T08:41:17.071Z,16.90
2023-02-22T08:43:44.180Z,17.40
2023-02-22T08:46:11.120Z,18.00
2023-02-22T08:48:38.022Z,18.50
2023-02-22T08:51:05.200Z,18.90
2023-02-22T08:53:32.847Z,19.30
2023-02-22T08:55:59.719Z,19.70
2023-02-22T08:58:27.958Z,19.90
2023-02-22T09:00:54.887Z,20.00
2023-02-22T09:03:21.874Z,20.00
2023-02-22T09:05:48.952Z,20.10
2023-02-22T09:08:16.489Z,20.20
2023-02-22T09:10:45.303Z,20.40
2023-02-22T09:13:12.917Z,20.50
2023-02-22T09:15:41.346Z,20.70
2023-02-22T09:18:10.805Z,20.80
2023-02-22T09:20:37.833Z,20.80
2023-02-22T09:23:06.192Z,20.90
2023-02-22T09:25:34.253Z,20.90
2023-02-22T09:28:01.396Z,21.10
2023-02-22T09:30:33.688Z,21.20
2023-02-22T09:33:05.663Z,21.00
2023-02-22T09:35:36.263Z,20.60
2023-02-22T09:38:06.235Z,20.10
2023-02-22T09:40:36.653Z,19.90
2023-02-22T09:43:20.605Z,19.90
2023-02-22T09:46:02.784Z,19.90
2023-02-22T09:48:36.311Z,20.00
2023-02-22T09:51:11.539Z,20.20
2023-02-22T09:53:41.855Z,20.50
2023-02-22T09:56:11.958Z,20.70
2023-02-22T09:58:42.972Z,21.10
2023-02-22T10:01:23.047Z,21.50
2023-02-22T10:04:00.297Z,21.80
2023-02-22T10:06:28.262Z,21.70
2023-02-22T10:08:59.989Z,21.50
2023-02-22T10:11:43.957Z,20.80
2023-02-22T10:14:34.478Z,20.70
2023-02-22T10:17:08.432Z,20.90
2023-02-22T10:19:49.390Z,20.90
2023-02-22T10:22:43.335Z,20.70
2023-02-22T10:25:13.735Z,20.10
2023-02-22T10:27:47.832Z,19.80
2023-02-22T10:30:25.132Z,19.70
2023-02-22T10:32:57.953Z,19.90
2023-02-22T10:35:28.997Z,20.10
2023-02-22T10:37:59.971Z,20.20
2023-02-22T10:40:33.230Z,20.10
2023-02-22T10:43:04.591Z,19.50
2023-02-22T10:45:33.562Z,19.40
2023-02-22T10:48:08.347Z,19.30
2023-02-22T10:50:40.749Z,19.40
2023-02-22T10:53:08.446Z,19.40
2023-02-22T10:55:35.708Z,19.40
2023-02-22T10:58:04.883Z,19.10
2023-02-22T11:00:37.232Z,19.10
2023-02-22T11:03:16.644Z,18.90
2023-02-22T11:05:44.998Z,18.40
2023-02-22T11:08:24.474Z,17.90
2023-02-22T11:10:53.198Z,17.20
2023-02-22T11:13:25.991Z,17.10
2023-02-22T11:15:53.803Z,17.30
2023-02-22T11:18:27.669Z,17.40
2023-02-22T11:21:06.312Z,17.50
2023-02-22T11:23:34.811Z,17.50
2023-02-22T11:26:07.330Z,17.40
2023-02-22T11:28:35.373Z,17.40
2023-02-22T11:31:15.907Z,17.60
2023-02-22T11:33:52.478Z,17.80
2023-02-22T11:36:43.482Z,18.00
2023-02-22T11:39:24.424Z,17.80
2023-02-22T11:41:51.430Z,17.80
2023-02-22T11:44:25.631Z,17.90
2023-02-22T11:46:55.710Z,17.70
2023-02-22T11:49:33.342Z,17.80
2023-02-22T11:52:18.451Z,17.80
2023-02-22T11:55:07.375Z,17.80
2023-02-22T11:57:48.415Z,17.90
2023-02-22T12:00:25.221Z,17.90
2023-02-22T12:03:10.435Z,18.00
2023-02-22T12:05:59.596Z,17.80
2023-02-22T12:08:41.018Z,17.60
2023-02-22T12:11:14.368Z,17.30
2023-02-22T12:13:54.813Z,17.20
2023-02-22T12:16:27.995Z,17.00
2023-02-22T12:19:15.585Z,16.70
2023-02-22T12:21:46.741Z,16.50
2023-02-22T12:24:19.361Z,16.30
2023-02-22T12:26:50.551Z,16.20
2023-02-22T12:29:26.785Z,16.00
2023-02-22T12:32:00.730Z,15.80
2023-02-22T12:34:33.007Z,15.90
2023-02-22T12:37:07.762Z,16.20
2023-02-22T12:39:52.886Z,16.40
2023-02-22T12:42:26.199Z,16.50
2023-02-22T12:44:57.261Z,16.70
2023-02-22T12:47:33.656Z,16.80
2023-02-22T12:50:07.173Z,16.90
2023-02-22T12:52:42.082Z,17.00
2023-02-22T12:55:17.042Z,17.10
2023-02-22T12:57:49.192Z,17.30
2023-02-22T13:00:23.119Z,17.50
2023-02-22T13:02:58.506Z,17.70
2023-02-22T13:05:25.852Z,18.00
2023-02-22T13:08:05.874Z,18.30
2023-02-22T13:10:48.863Z,18.60
2023-02-22T13:13:23.956Z,19.00
2023-02-22T13:15:58.619Z,19.20
2023-02-22T13:18:32.545Z,19.20
2023-02-22T13:21:02.856Z,19.40
2023-02-22T13:23:42.104Z,19.50
2023-02-22T13:26:18.574Z,19.60
2023-02-22T13:28:50.796Z,19.80
2023-02-22T13:31:40.040Z,19.90
2023-02-22T13:34:34.202Z,20.00
2023-02-22T13:37:23.557Z,20.10
2023-02-22T13:40:16.817Z,20.20
2023-02-22T13:43:01.562Z,20.20
2023-02-22T13:46:03.573Z,20.20
2023-02-22T13:48:52.921Z,20.00
2023-02-22T13:51:46.354Z,19.60
2023-02-22T13:54:19.868Z,19.30
2023-02-22T13:56:49.650Z,19.10
2023-02-22T13:59:30.776Z,19.00
2023-02-22T14:01:58.671Z,18.90
2023-02-22T14:04:46.722Z,18.80
2023-02-22T14:07:56.321Z,18.70
2023-02-22T14:10:55.348Z,18.60
2023-02-22T14:13:23.475Z,18.50
2023-02-22T14:16:21.934Z,18.40
2023-02-22T14:18:59.985Z,18.30
2023-02-22T14:21:26.990Z,18.20
2023-02-22T14:23:55.917Z,18.20
2023-02-22T14:26:27.729Z,18.10
2023-02-22T14:28:57.951Z,18.10
2023-02-22T14:31:37.358Z,18.20
2023-02-22T14:34:10.551Z,18.10
2023-02-22T14:36:51.135Z,18.00
2023-02-22T14:39:26.992Z,18.00
2023-02-22T14:42:01.437Z,17.90
2023-02-22T14:44:33.206Z,17.80
2023-02-22T14:47:05.012Z,17.80
2023-02-22T14:49:36.647Z,17.70
2023-02-22T14:52:13.163Z,17.60
2023-02-22T14:55:04.275Z,17.60
2023-02-22T14:57:42.240Z,17.50
2023-02-22T15:00:23.192Z,17.40
2023-02-22T15:02:52.608Z,17.30
2023-02-22T15:05:20.845Z,17.30
2023-02-22T15:07:52.698Z,17.20
2023-02-22T15:10:23.981Z,17.00
2023-02-22T15:13:12.219Z,17.00
2023-02-22T15:15:43.794Z,16.80
2023-02-22T15:18:27.035Z,16.80
2023-02-22T15:20:58.103Z,16.70
2023-02-22T15:23:26.769Z,16.60
2023-02-22T15:25:54.079Z,16.50
2023-02-22T15:28:24.272Z,16.40
2023-02-22T15:30:52.181Z,16.30
2023-02-22T15:33:24.725Z,16.30
2023-02-22T15:35:57.699Z,16.20
2023-02-22T15:38:29.335Z,16.20
2023-02-22T15:41:02.573Z,16.10
2023-02-22T15:43:32.030Z,16.00
2023-02-22T15:46:00.228Z,16.00
2023-02-22T15:48:28.359Z,16.00
2023-02-22T15:51:07.073Z,15.90
2023-02-22T15:53:40.138Z,15.90
2023-02-22T15:56:12.098Z,15.90
2023-02-22T15:58:39.379Z,15.90
2023-02-22T16:01:08.987Z,15.90
2023-02-22T16:03:44.821Z,15.80
2023-02-22T16:06:15.516Z,15.80
2023-02-22T16:08:54.792Z,15.70
2023-02-22T16:11:32.580Z,15.60
2023-02-22T16:14:01.995Z,15.60
2023-02-22T16:16:30.910Z,15.50
2023-02-22T16:19:26.531Z,15.50
2023-02-22T16:21:58.367Z,15.40
2023-02-22T16:24:30.023Z,15.40
2023-02-22T16:27:16.926Z,15.30
2023-02-22T16:29:44.962Z,15.30
2023-02-22T16:32:12.082Z,15.20
2023-02-22T16:34:39.024Z,15.20
2023-02-22T16:37:22.156Z,15.20
2023-02-22T16:39:51.820Z,15.10
2023-02-22T16:42:24.131Z,15.10
2023-02-22T16:44:53.902Z,15.00
2023-02-22T16:47:20.926Z,14.90
2023-02-22T16:49:52.814Z,14.90
2023-02-22T16:52:21.291Z,14.80
2023-02-22T16:54:48.567Z,14.80
2023-02-22T16:57:19.694Z,14.70
2023-02-22T16:59:52.114Z,14.70
2023-02-22T17:02:21.328Z,14.60
2023-02-22T17:04:50.853Z,14.60
2023-02-22T17:07:20.594Z,14.60
2023-02-22T17:09:50.903Z,14.50
2023-02-22T17:12:18.196Z,14.40
2023-02-22T17:14:46.249Z,14.30
2023-02-22T17:17:14.661Z,14.30
2023-02-22T17:19:41.606Z,14.30
2023-02-22T17:22:16.125Z,14.30
2023-02-22T17:24:42.976Z,14.20
2023-02-22T17:27:11.233Z,14.20
2023-02-22T17:29:38.170Z,14.20
2023-02-22T17:32:05.404Z,14.20
2023-02-22T17:34:32.629Z,14.10
2023-02-22T17:36:59.571Z,14.00
2023-02-22T17:39:27.430Z,14.00
2023-02-22T17:41:57.927Z,13.90
2023-02-22T17:44:26.856Z,13.90
2023-02-22T17:46:53.813Z,13.90
2023-02-22T17:49:20.698Z,13.80
2023-02-22T17:51:49.597Z,13.80
2023-02-22T17:54:17.610Z,13.70
2023-02-22T17:56:44.596Z,13.70
2023-02-22T17:59:11.639Z,13.60
2023-02-22T18:01:40.025Z,13.60
2023-02-22T18:04:06.971Z,13.50
2023-02-22T18:06:35.066Z,13.50
2023-02-22T18:09:10.097Z,13.50
2023-02-22T18:11:39.103Z,13.50
2023-02-22T18:14:10.097Z,13.40
2023-02-22T18:16:38.864Z,13.30
2023-02-22T18:19:07.173Z,13.30
2023-02-22T18:21:34.180Z,13.20
2023-02-22T18:24:01.246Z,13.20
2023-02-22T18:26:28.528Z,13.10
2023-02-22T18:28:55.736Z,13.10
2023-02-22T18:31:23.520Z,13.10
2023-02-22T18:33:52.346Z,13.00
2023-02-22T18:36:23.025Z,13.00
2023-02-22T18:38:51.741Z,12.90
2023-02-22T18:41:20.309Z,12.90
2023-02-22T18:43:47.330Z,12.90
2023-02-22T18:46:16.257Z,12.90
2023-02-22T18:48:43.586Z,13.00
2023-02-22T18:51:12.608Z,13.00
2023-02-22T18:53:46.656Z,12.90
2023-02-22T18:56:16.691Z,12.90
2023-02-22T18:58:43.985Z,12.90
2023-02-22T19:01:15.625Z,12.70
2023-02-22T19:03:42.868Z,12.60
2023-02-22T19:06:10.230Z,12.60
2023-02-22T19:08:39.578Z,12.50
2023-02-22T19:11:10.481Z,12.40
2023-02-22T19:13:37.993Z,12.50
2023-02-22T19:16:07.301Z,12.40
2023-02-22T19:18:34.617Z,12.40
2023-02-22T19:21:04.473Z,12.50
2023-02-22T19:23:34.444Z,12.40
2023-02-22T19:26:02.413Z,12.40
2023-02-22T19:28:34.103Z,12.40
2023-02-22T19:31:11.666Z,12.40
2023-02-22T19:33:38.662Z,12.40
2023-02-22T19:36:06.480Z,12.30
2023-02-22T19:38:33.363Z,12.30
2023-02-22T19:41:00.301Z,12.30
2023-02-22T19:43:28.568Z,12.30
2023-02-22T19:45:56.832Z,12.30
2023-02-22T19:48:23.727Z,12.30
2023-02-22T19:50:50.692Z,12.20
2023-02-22T19:53:17.930Z,12.20
2023-02-22T19:55:44.835Z,12.10
2023-02-22T19:58:14.624Z,12.10
2023-02-22T20:00:41.485Z,12.10
2023-02-22T20:03:13.241Z,12.00
2023-02-22T20:05:40.859Z,12.00
2023-02-22T20:08:08.248Z,12.00
2023-02-22T20:10:35.092Z,11.90
2023-02-22T20:13:02.319Z,11.90
2023-02-22T20:15:29.329Z,12.00
2023-02-22T20:17:57.888Z,11.90
2023-02-22T20:20:27.983Z,11.90
2023-02-22T20:22:56.726Z,11.90
2023-02-22T20:25:24.105Z,11.90
2023-02-22T20:27:50.935Z,11.90
2023-02-22T20:30:18.034Z,11.80
2023-02-22T20:32:45.339Z,11.80
2023-02-22T20:35:12.275Z,11.80
2023-02-22T20:37:42.534Z,11.70
2023-02-22T20:40:10.411Z,11.70
2023-02-22T20:42:37.256Z,11.60
2023-02-22T20:45:06.045Z,11.60
2023-02-22T20:47:32.924Z,11.60
2023-02-22T20:49:59.983Z,11.60
2023-02-22T20:52:26.825Z,11.60
2023-02-22T20:54:56.384Z,11.60
2023-02-22T20:57:23.309Z,11.50
2023-02-22T20:59:50.308Z,11.50
2023-02-22T21:02:17.180Z,11.50
2023-02-22T21:04:44.154Z,11.40
2023-02-22T21:07:11.084Z,11.40
2023-02-22T21:09:38.384Z,11.30
2023-02-22T21:12:13.306Z,11.30
2023-02-22T21:14:40.937Z,11.30
2023-02-22T21:17:08.840Z,11.30
2023-02-22T21:19:36.152Z,11.20
2023-02-22T21:22:08.110Z,11.20
2023-02-22T21:24:36.389Z,11.20
2023-02-22T21:27:03.464Z,11.10
2023-02-22T21:29:34.634Z,11.10
2023-02-22T21:32:02.340Z,11.00
2023-02-22T21:34:29.786Z,11.00
2023-02-22T21:36:56.851Z,11.00
2023-02-22T21:39:28.351Z,11.00
2023-02-22T21:42:00.142Z,11.00
2023-02-22T21:44:28.132Z,11.00
2023-02-22T21:46:56.506Z,11.00
2023-02-22T21:49:23.632Z,10.90
2023-02-22T21:51:51.676Z,10.90
2023-02-22T21:54:18.796Z,10.90
2023-02-22T21:56:46.261Z,11.00
2023-02-22T21:59:14.904Z,10.90
2023-02-22T22:01:47.048Z,10.90
2023-02-22T22:04:19.975Z,10.90
2023-02-22T22:06:48.490Z,10.90
2023-02-22T22:09:18.395Z,10.90
2023-02-22T22:11:46.868Z,10.90
2023-02-22T22:14:13.769Z,10.90
2023-02-22T22:16:40.693Z,10.90
2023-02-22T22:19:08.197Z,10.90
2023-02-22T22:21:37.699Z,10.90
2023-02-22T22:24:07.039Z,10.80
2023-02-22T22:26:33.957Z,10.80
2023-02-22T22:29:01.192Z,10.80
2023-02-22T22:31:28.791Z,10.80
2023-02-22T22:33:56.388Z,10.70
2023-02-22T22:36:26.018Z,10.70
2023-02-22T22:38:57.288Z,10.70
2023-02-22T22:41:27.996Z,10.60
2023-02-22T22:43:55.487Z,10.60
2023-02-22T22:46:22.588Z,10.60
2023-02-22T22:48:49.784Z,10.60
2023-02-22T22:51:20.013Z,10.60
2023-02-22T22:53:48.816Z,10.60
2023-02-22T22:56:19.317Z,10.60
2023-02-22T22:58:48.621Z,10.60
2023-02-22T23:01:19.971Z,10.70
2023-02-22T23:03:54.785Z,10.70
2023-02-22T23:06:24.945Z,10.70
2023-02-22T23:09:01.518Z,10.60
2023-02-22T23:11:33.724Z,10.60
2023-02-22T23:14:03.114Z,10.60
2023-02-22T23:16:30.045Z,10.60
2023-02-22T23:18:56.917Z,10.60
2023-02-22T23:21:24.414Z,10.60
2023-02-22T23:23:54.394Z,10.60
2023-02-22T23:26:21.422Z,10.60
2023-02-22T23:28:49.924Z,10.60
2023-02-22T23:31:18.011Z,10.60
2023-02-22T23:33:48.324Z,10.60
2023-02-22T23:36:16.145Z,10.60
2023-02-22T23:38:43.857Z,10.70
2023-02-22T23:41:12.242Z,10.70
2023-02-22T23:43:40.444Z,10.70
2023-02-22T23:46:11.116Z,10.60
2023-02-22T23:48:46.698Z,10.70
2023-02-22T23:51:18.524Z,10.70
2023-02-22T23:53:46.392Z,10.70
2023-02-22T23:56:15.081Z,10.70
2023-02-22T23:58:43.167Z,10.70
